Terminal Aerodrome Forecast
Issued by NWS Melbourne, FL

Home | Current Version | Previous Version | Text Only | Print | Product List | Glossary On
Versions: 1 2 3 4 5 6 7 8 9 10 11 12 13
000
FTUS42 KMLB 211144
TAFMLB
TAF
KMLB 211144Z 2112/2212 11010KT P6SM SCT025 BKN035 OVC250
     FM211400 08016G24KT P6SM VCSH SCT025 BKN050
      TEMPO 2118/2122 3SM SHRA BKN025
     FM220000 09016G24KT P6SM VCSH SCT020 BKN025
      TEMPO 2200/2204 5SM SHRA BKN020
     FM220600 09011KT P6SM VCSH BKN020=

USA.gov is the U.S. government's official web portal to all federal, state and local government web resources and services.